createdAt,value
2019-03-17T00:01:22.178Z,5.72
2019-03-17T00:05:27.195Z,7.08
2019-03-17T00:09:32.180Z,3.80
2019-03-17T00:13:37.155Z,5.55
2019-03-17T00:17:42.161Z,5.95
2019-03-17T00:21:47.077Z,6.90
2019-03-17T00:25:52.056Z,5.35
2019-03-17T00:29:57.001Z,2.98
2019-03-17T00:34:01.978Z,5.05
2019-03-17T00:38:06.945Z,3.95
2019-03-17T00:42:11.904Z,5.22
2019-03-17T00:46:16.858Z,5.15
2019-03-17T00:50:21.824Z,8.23
2019-03-17T00:54:26.775Z,4.10
2019-03-17T00:58:31.756Z,4.03
2019-03-17T01:02:37.700Z,3.40
2019-03-17T01:06:42.659Z,3.98
2019-03-17T01:10:48.607Z,5.35
2019-03-17T01:14:53.556Z,5.83
2019-03-17T01:18:58.539Z,3.60
2019-03-17T01:23:03.488Z,4.80
2019-03-17T01:27:08.561Z,5.87
2019-03-17T01:31:13.570Z,5.28
2019-03-17T01:35:18.509Z,6.50
2019-03-17T01:39:23.485Z,9.08
2019-03-17T01:43:28.448Z,7.40
2019-03-17T01:47:33.426Z,6.05
2019-03-17T01:51:38.504Z,7.65
2019-03-17T01:55:43.430Z,5.17
2019-03-17T01:59:48.399Z,9.30
2019-03-17T02:03:53.354Z,7.37
2019-03-17T02:07:58.386Z,7.33
2019-03-17T02:12:03.335Z,7.78
2019-03-17T02:16:08.304Z,7.12
2019-03-17T02:20:13.338Z,6.78
2019-03-17T02:24:18.347Z,7.67
2019-03-17T02:28:23.305Z,5.83
2019-03-17T02:32:28.276Z,7.45
2019-03-17T02:36:33.228Z,7.10
2019-03-17T02:40:38.199Z,6.62
2019-03-17T02:44:43.264Z,4.95
2019-03-17T02:48:48.160Z,3.12
2019-03-17T02:52:53.155Z,7.20
2019-03-17T02:56:58.085Z,7.55
2019-03-17T03:01:03.345Z,6.40
2019-03-17T03:05:09.031Z,7.28
2019-03-17T03:09:14.008Z,6.12
2019-03-17T03:13:18.980Z,7.22
2019-03-17T03:17:23.948Z,4.40
2019-03-17T03:21:28.939Z,5.75
2019-03-17T03:25:33.888Z,5.28
2019-03-17T03:29:38.853Z,5.45
2019-03-17T03:33:43.846Z,6.08
2019-03-17T03:37:48.790Z,5.45
2019-03-17T03:41:53.801Z,3.75
2019-03-17T03:45:58.750Z,6.70
2019-03-17T03:50:05.024Z,11.75
2019-03-17T03:54:09.971Z,6.20
2019-03-17T03:58:14.982Z,6.60
2019-03-17T04:02:19.923Z,5.20
2019-03-17T04:06:26.718Z,4.45
2019-03-17T04:10:31.486Z,3.75
2019-03-17T04:14:36.457Z,3.70
2019-03-17T04:18:41.466Z,4.70
2019-03-17T04:22:46.423Z,4.37
2019-03-17T04:26:52.472Z,3.10
2019-03-17T04:30:57.476Z,6.03
2019-03-17T04:35:02.631Z,3.83
2019-03-17T04:39:08.676Z,4.60
2019-03-17T04:43:13.631Z,6.92
2019-03-17T04:47:18.603Z,5.28
2019-03-17T04:51:23.546Z,5.78
2019-03-17T04:55:28.507Z,4.20
2019-03-17T04:59:33.512Z,7.12
2019-03-17T05:03:38.454Z,3.33
2019-03-17T05:07:43.684Z,7.30
2019-03-17T05:11:48.626Z,6.30
2019-03-17T05:15:53.646Z,4.05
2019-03-17T05:19:58.597Z,2.90
2019-03-17T05:24:03.603Z,4.67
2019-03-17T05:28:08.568Z,2.98
2019-03-17T05:32:13.581Z,6.12
2019-03-17T05:36:18.535Z,3.52
2019-03-17T05:40:23.508Z,6.05
2019-03-17T05:44:28.487Z,3.45
2019-03-17T05:48:33.542Z,4.40
2019-03-17T05:52:38.512Z,5.33
2019-03-17T05:56:43.506Z,4.75
2019-03-17T06:00:48.463Z,6.35
2019-03-17T06:04:53.465Z,4.15
2019-03-17T06:08:58.414Z,3.45
2019-03-17T06:13:03.387Z,4.70
2019-03-17T06:17:08.375Z,4.80
2019-03-17T06:21:13.329Z,3.55
2019-03-17T06:25:18.449Z,2.27
2019-03-17T06:29:23.361Z,3.95
2019-03-17T06:33:28.416Z,3.62
2019-03-17T06:37:33.366Z,2.75
2019-03-17T06:41:38.379Z,3.08
2019-03-17T06:45:43.328Z,2.58
2019-03-17T06:49:48.320Z,2.83
2019-03-17T06:53:56.647Z,1.95
2019-03-17T06:57:59.902Z,5.05
2019-03-17T07:02:04.887Z,4.60
2019-03-17T07:06:09.895Z,2.47
2019-03-17T07:10:22.424Z,5.08
2019-03-17T07:14:27.481Z,2.12
2019-03-17T07:18:32.432Z,5.75
2019-03-17T07:22:37.400Z,1.87
2019-03-17T07:26:42.394Z,2.65
2019-03-17T07:30:47.328Z,1.98
2019-03-17T07:34:52.308Z,2.83
2019-03-17T07:38:57.261Z,2.42
2019-03-17T07:43:03.204Z,2.17
2019-03-17T07:47:08.187Z,5.53
2019-03-17T07:51:13.143Z,2.55
2019-03-17T07:55:18.129Z,3.05
2019-03-17T07:59:23.082Z,2.40
2019-03-17T08:03:28.083Z,2.27
2019-03-17T08:07:33.052Z,2.77
2019-03-17T08:11:38.096Z,2.00
2019-03-17T08:15:43.178Z,2.47
2019-03-17T08:19:48.146Z,4.58
2019-03-17T08:23:53.134Z,3.30
2019-03-17T08:27:58.432Z,3.37
2019-03-17T08:32:05.213Z,2.33
2019-03-17T08:36:10.763Z,5.58
2019-03-17T08:40:17.527Z,3.65
2019-03-17T08:44:23.103Z,3.58
2019-03-17T08:48:28.304Z,4.55
2019-03-17T08:52:34.430Z,5.53
2019-03-17T08:56:39.686Z,4.72
2019-03-17T09:00:44.916Z,3.27
2019-03-17T09:04:50.092Z,6.25
2019-03-17T09:08:55.636Z,5.80
2019-03-17T09:13:04.052Z,3.15
2019-03-17T09:17:14.224Z,6.85
2019-03-17T09:21:14.648Z,4.35
2019-03-17T09:25:19.616Z,5.28
2019-03-17T09:29:25.339Z,3.42
2019-03-17T09:33:30.688Z,6.15
2019-03-17T09:37:36.144Z,7.67
2019-03-17T09:41:41.186Z,5.58
2019-03-17T09:45:46.215Z,8.03
2019-03-17T09:49:51.241Z,7.15
2019-03-17T09:53:56.313Z,3.30
2019-03-17T09:58:01.460Z,5.75
2019-03-17T10:02:07.240Z,5.90
2019-03-17T10:06:12.528Z,4.70
2019-03-17T10:10:23.863Z,5.17
2019-03-17T10:14:29.432Z,4.58
2019-03-17T10:18:36.198Z,8.38
2019-03-17T10:22:41.568Z,3.92
2019-03-17T10:26:47.207Z,8.95
2019-03-17T10:30:52.761Z,9.20
2019-03-17T10:34:58.135Z,7.00
2019-03-17T10:39:12.365Z,6.47
2019-03-17T10:43:11.477Z,6.85
2019-03-17T10:47:17.030Z,8.20
2019-03-17T10:51:22.586Z,4.83
2019-03-17T10:55:28.047Z,5.83
2019-03-17T10:59:33.393Z,6.05
2019-03-17T11:03:38.945Z,6.72
2019-03-17T11:07:44.500Z,5.35
2019-03-17T11:11:50.157Z,4.00
2019-03-17T11:15:55.712Z,6.15
2019-03-17T11:20:01.381Z,4.53
2019-03-17T11:24:06.791Z,7.87
2019-03-17T11:28:13.027Z,3.55
2019-03-17T11:32:19.574Z,5.03
2019-03-17T11:36:25.250Z,3.95
2019-03-17T11:40:32.324Z,5.75
2019-03-17T11:44:37.876Z,6.28
2019-03-17T11:48:44.557Z,5.53
2019-03-17T11:52:50.569Z,4.67
2019-03-17T11:56:56.182Z,4.47
2019-03-17T12:01:02.496Z,3.80
2019-03-17T12:05:10.260Z,7.28
2019-03-17T12:09:28.165Z,6.05
2019-03-17T12:13:23.116Z,7.87
2019-03-17T12:17:28.770Z,3.35
2019-03-17T12:21:34.432Z,4.55
2019-03-17T12:25:40.092Z,4.92
2019-03-17T12:29:45.744Z,6.42
2019-03-17T12:33:53.039Z,4.95
2019-03-17T12:37:58.595Z,6.85
2019-03-17T12:42:04.352Z,8.08
2019-03-17T12:46:10.112Z,3.52
2019-03-17T12:50:17.604Z,4.03
2019-03-17T12:54:23.271Z,3.62
2019-03-17T12:58:28.981Z,4.03
2019-03-17T13:02:39.047Z,2.65
2019-03-17T13:06:44.958Z,0.60
2019-03-17T13:10:52.156Z,1.25
2019-03-17T13:14:57.810Z,0.60
2019-03-17T13:19:04.598Z,0.40
2019-03-17T13:23:10.559Z,0.47
2019-03-17T13:27:18.979Z,0.68
2019-03-17T13:31:24.689Z,0.37
2019-03-17T13:35:30.399Z,0.50
2019-03-17T13:39:37.531Z,0.60
2019-03-17T13:43:45.398Z,0.65
2019-03-17T13:47:54.259Z,1.87
2019-03-17T13:51:59.680Z,0.47
2019-03-17T13:56:07.080Z,0.65
2019-03-17T14:00:15.506Z,1.62
2019-03-17T14:04:23.040Z,0.88
2019-03-17T14:08:28.762Z,0.68
2019-03-17T14:12:34.524Z,1.85
2019-03-17T14:16:43.114Z,3.02
2019-03-17T14:20:50.148Z,1.05
2019-03-17T14:24:57.690Z,1.07
2019-03-17T14:29:04.015Z,0.60
2019-03-17T14:33:09.907Z,1.25
2019-03-17T14:37:16.251Z,1.05
2019-03-17T14:41:23.390Z,2.15
2019-03-17T14:45:30.168Z,0.90
2019-03-17T14:49:36.299Z,1.32
2019-03-17T14:53:44.663Z,1.12
2019-03-17T14:57:53.144Z,0.70
2019-03-17T15:02:05.664Z,3.40
2019-03-17T15:06:07.278Z,6.55
2019-03-17T15:10:20.511Z,1.20
2019-03-17T15:14:26.319Z,1.75
2019-03-17T15:18:32.078Z,3.08
2019-03-17T15:22:39.170Z,2.40
2019-03-17T15:26:46.367Z,1.22
2019-03-17T15:31:09.911Z,3.17
2019-03-17T15:34:59.625Z,1.77
2019-03-17T15:39:07.501Z,1.62
2019-03-17T15:43:13.124Z,1.98
2019-03-17T15:47:18.850Z,2.22
2019-03-17T15:51:28.299Z,1.92
2019-03-17T15:55:34.160Z,1.40
2019-03-17T15:59:39.921Z,2.90
2019-03-17T16:03:46.555Z,3.08
2019-03-17T16:07:52.930Z,2.40
2019-03-17T16:12:00.785Z,2.75
2019-03-17T16:16:06.444Z,2.02
2019-03-17T16:20:15.127Z,2.70
2019-03-17T16:24:22.507Z,6.37
2019-03-17T16:28:30.788Z,2.50
2019-03-17T16:32:39.517Z,1.67
2019-03-17T16:36:46.660Z,2.62
2019-03-17T16:40:52.469Z,1.85
2019-03-17T16:44:58.230Z,8.28
2019-03-17T16:49:03.889Z,2.42
2019-03-17T16:53:10.726Z,1.72
2019-03-17T16:57:17.867Z,4.53
2019-03-17T17:01:23.526Z,4.30
2019-03-17T17:05:29.488Z,2.87
2019-03-17T17:09:37.808Z,3.15
2019-03-17T17:13:44.799Z,4.85
2019-03-17T17:17:52.040Z,4.60
2019-03-17T17:21:58.922Z,2.30
2019-03-17T17:26:07.271Z,2.40
2019-03-17T17:30:20.989Z,3.20
2019-03-17T17:34:27.470Z,3.65
2019-03-17T17:38:34.002Z,2.65
2019-03-17T17:42:41.983Z,2.70
2019-03-17T17:46:48.695Z,1.45
2019-03-17T17:50:57.532Z,1.45
2019-03-17T17:55:03.391Z,3.35
2019-03-17T17:59:09.664Z,2.83
2019-03-17T18:03:15.423Z,4.90
2019-03-17T18:07:21.285Z,3.37
2019-03-17T18:11:28.748Z,2.20
2019-03-17T18:15:35.575Z,4.47
2019-03-17T18:19:42.811Z,1.25
2019-03-17T18:23:51.555Z,3.05
2019-03-17T18:28:00.383Z,2.17
2019-03-17T18:32:06.391Z,2.40
2019-03-17T18:36:12.255Z,1.47
2019-03-17T18:40:21.188Z,1.90
2019-03-17T18:44:28.698Z,1.22
2019-03-17T18:48:34.449Z,1.90
2019-03-17T18:52:40.208Z,1.27
2019-03-17T18:56:48.372Z,0.98
2019-03-17T19:00:54.259Z,1.87
2019-03-17T19:04:59.947Z,2.52
2019-03-17T19:09:07.448Z,1.30
2019-03-17T19:13:14.542Z,1.47
2019-03-17T19:17:23.883Z,1.42
2019-03-17T19:21:29.542Z,2.60
2019-03-17T19:25:35.200Z,2.40
2019-03-17T19:29:40.877Z,2.90
2019-03-17T19:33:46.556Z,1.87
2019-03-17T19:37:52.376Z,1.60
2019-03-17T19:41:58.142Z,1.15
2019-03-17T19:46:03.947Z,1.10
2019-03-17T19:50:13.855Z,1.72
2019-03-17T19:54:19.511Z,1.25
2019-03-17T19:58:25.580Z,2.42
2019-03-17T20:02:31.237Z,3.45
2019-03-17T20:06:40.095Z,2.17
2019-03-17T20:10:45.669Z,2.92
2019-03-17T20:14:51.488Z,1.85
2019-03-17T20:18:57.351Z,1.75
2019-03-17T20:23:04.711Z,1.12
2019-03-17T20:27:10.910Z,1.20
2019-03-17T20:31:18.251Z,2.72
2019-03-17T20:35:23.985Z,2.90
2019-03-17T20:39:30.453Z,5.15
2019-03-17T20:43:38.529Z,3.00
2019-03-17T20:47:44.502Z,1.95
2019-03-17T20:51:51.213Z,2.30
2019-03-17T20:55:57.588Z,1.67
2019-03-17T21:00:09.089Z,2.47
2019-03-17T21:04:14.433Z,3.67
2019-03-17T21:08:21.623Z,1.72
2019-03-17T21:12:27.385Z,1.82
2019-03-17T21:16:34.174Z,2.55
2019-03-17T21:20:40.445Z,2.05
2019-03-17T21:24:47.634Z,2.60
2019-03-17T21:28:53.291Z,2.08
2019-03-17T21:32:58.883Z,8.60
2019-03-17T21:37:04.666Z,2.10
2019-03-17T21:41:11.496Z,3.85
2019-03-17T21:45:17.262Z,3.58
2019-03-17T21:49:22.912Z,3.87
2019-03-17T21:53:28.570Z,2.62
2019-03-17T21:57:34.126Z,3.83
2019-03-17T22:01:39.679Z,2.33
2019-03-17T22:05:45.338Z,4.62
2019-03-17T22:09:52.224Z,3.47
2019-03-17T22:13:57.781Z,4.80
2019-03-17T22:18:03.448Z,3.22
2019-03-17T22:22:09.131Z,2.70
2019-03-17T22:26:14.548Z,3.47
2019-03-17T22:30:20.580Z,2.85
2019-03-17T22:34:25.647Z,2.58
2019-03-17T22:38:30.714Z,3.67
2019-03-17T22:42:35.953Z,4.17
2019-03-17T22:46:40.991Z,3.80
2019-03-17T22:50:46.038Z,1.62
2019-03-17T22:54:50.942Z,2.70
2019-03-17T22:58:55.946Z,1.55
2019-03-17T23:03:00.896Z,3.50
2019-03-17T23:07:05.933Z,3.35
2019-03-17T23:11:10.904Z,1.20
2019-03-17T23:15:16.408Z,1.47
2019-03-17T23:19:21.559Z,3.92
2019-03-17T23:23:26.477Z,2.67
2019-03-17T23:27:31.552Z,3.10
2019-03-17T23:31:36.737Z,3.08
2019-03-17T23:35:41.725Z,3.27
2019-03-17T23:39:46.660Z,3.35
2019-03-17T23:43:51.640Z,5.45
2019-03-17T23:47:56.601Z,5.65
2019-03-17T23:52:01.585Z,2.85
2019-03-17T23:56:06.549Z,2.27
